首页
METAR-TAF:

METAR-TAF

机场 :

日利納, 斯洛伐克

纬度: 49-14N, 经度: 018-36-49E, 海拔: 312米

当前天气观测

该预报发布于15分钟前的03:00 UTC
风速2节,风向多变
温度 5°C
湿度 93%
气压 996 hPa
能见度10公里或以上
多云层高于3400英尺

METAR: LZZI 260300Z VRB02KT 9999 BKN034 05/04 Q0996

时间: 04:15 (03:15 UTC)

预报

该预报发布于1小时和15分钟前的02:00 UTC
预报有效从26日的 03点(UTC)到 26日的 12点(UTC)
风速2节,风向多变
能见度10公里或以上
多云层高于3500英尺
几率 30% :
短暂存在
从 26日的 03点(UTC)到 26日的 06点(UTC)
能見度: 3500
多云层高于900英尺
阴天层高于1800英尺
小雨, 轻雾
成为
从 26日的 06点(UTC)到 26日的 08点(UTC)
风速9节,风向西南
短暂存在
从 26日的 10点(UTC)到 26日的 12点(UTC)
能見度: 5000
散云层高于1200英尺
散云层高于1600英尺, 塔状积云.
多云层高于2500英尺
阵雨

TAF: LZZI 260200Z 2603/2612 VRB02KT 9999 BKN035 PROB30 TEMPO 2603/2606 3500 -RA BR BKN009 OVC018 BECMG 2606/2608 23009KT TEMPO 2610/2612 5000 SHRA SCT012 SCT016TCU BKN025

超过4000个机场的气象观测和天气预报(METAR&TAF报告)。

可查询的气象台以黄色和红色小点在地图上表示。

将鼠标移到小点上方,可查看气象台名称。

然后点击查看天气观测和预报。

如需切换地图:点击带黑十字的绿色按钮放大地图;点击带横线的绿色按钮缩小地图;或者点击绿色箭头查看邻近地区的地图。


METAR-TAF: